createdAt,value
2022-11-28T00:02:28.005Z,13.38
2022-11-28T00:05:30.556Z,12.63
2022-11-28T00:08:33.831Z,13.82
2022-11-28T00:11:36.351Z,13.05
2022-11-28T00:14:39.052Z,12.10
2022-11-28T00:17:41.688Z,13.13
2022-11-28T00:20:43.944Z,12.25
2022-11-28T00:23:48.386Z,13.27
2022-11-28T00:26:50.671Z,12.65
2022-11-28T00:29:53.276Z,12.77
2022-11-28T00:32:55.475Z,12.23
2022-11-28T00:36:04.451Z,12.18
2022-11-28T00:39:06.817Z,11.63
2022-11-28T00:42:09.311Z,11.88
2022-11-28T00:45:11.726Z,12.13
2022-11-28T00:48:14.239Z,12.00
2022-11-28T00:51:19.517Z,12.02
2022-11-28T00:54:22.027Z,11.00
2022-11-28T00:57:24.304Z,11.65
2022-11-28T01:00:26.842Z,10.77
2022-11-28T01:03:29.068Z,10.75
2022-11-28T01:06:40.520Z,11.27
2022-11-28T01:09:42.865Z,10.32
2022-11-28T01:12:45.452Z,11.32
2022-11-28T01:15:48.155Z,11.12
2022-11-28T01:18:51.515Z,11.25
2022-11-28T01:21:53.901Z,11.93
2022-11-28T01:24:56.438Z,10.32
2022-11-28T01:27:58.765Z,11.45
2022-11-28T01:31:09.554Z,11.25
2022-11-28T01:34:11.845Z,11.07
2022-11-28T01:37:14.402Z,10.50
2022-11-28T01:40:17.059Z,10.70
2022-11-28T01:43:21.243Z,11.15
2022-11-28T01:46:23.568Z,10.70
2022-11-28T01:49:31.747Z,10.57
2022-11-28T01:52:36.868Z,10.00
2022-11-28T01:56:01.226Z,10.57
2022-11-28T01:59:07.647Z,11.73
2022-11-28T02:02:18.318Z,10.48
2022-11-28T02:05:22.061Z,10.40
2022-11-28T02:08:25.524Z,10.85
2022-11-28T02:11:40.171Z,10.98
2022-11-28T02:15:06.919Z,11.65
2022-11-28T02:18:39.671Z,10.05
2022-11-28T02:22:02.252Z,10.95
2022-11-28T02:25:33.615Z,10.45
2022-11-28T02:28:58.610Z,10.93
2022-11-28T02:32:33.105Z,10.05
2022-11-28T02:35:55.833Z,10.95
2022-11-28T02:39:52.200Z,10.25
2022-11-28T02:43:26.291Z,9.52
2022-11-28T02:46:37.571Z,10.10
2022-11-28T02:50:07.412Z,9.13
2022-11-28T02:53:14.620Z,10.57
2022-11-28T02:56:18.088Z,9.60
2022-11-28T02:59:38.800Z,9.88
2022-11-28T03:02:43.772Z,9.27
2022-11-28T03:06:05.528Z,10.05
2022-11-28T03:09:46.863Z,9.45
2022-11-28T03:13:21.522Z,10.25
2022-11-28T03:16:46.244Z,9.55
2022-11-28T03:19:54.691Z,9.70
2022-11-28T03:23:16.371Z,9.20
2022-11-28T03:26:46.326Z,9.88
2022-11-28T03:29:56.092Z,8.70
2022-11-28T03:33:01.606Z,9.70
2022-11-28T03:36:17.889Z,9.43
2022-11-28T03:39:24.084Z,8.40
2022-11-28T03:42:31.614Z,9.20
2022-11-28T03:45:42.791Z,9.95
2022-11-28T03:48:48.610Z,9.57
2022-11-28T03:51:57.814Z,9.82
2022-11-28T03:55:05.483Z,9.27
2022-11-28T03:58:37.463Z,9.57
2022-11-28T04:02:04.717Z,10.10
2022-11-28T04:05:32.787Z,10.38
2022-11-28T04:08:44.502Z,9.75
2022-11-28T04:11:59.226Z,10.23
2022-11-28T04:15:09.792Z,10.38
2022-11-28T04:18:29.727Z,9.40
2022-11-28T04:22:01.379Z,10.60
2022-11-28T04:25:15.375Z,10.13
2022-11-28T04:28:23.274Z,10.45
2022-11-28T04:31:26.814Z,10.52
2022-11-28T04:34:32.482Z,10.68
2022-11-28T04:37:39.123Z,10.63
2022-11-28T04:40:47.216Z,9.95
2022-11-28T04:44:01.012Z,9.90
2022-11-28T04:47:04.468Z,10.57
2022-11-28T04:50:08.176Z,9.90
2022-11-28T04:53:15.671Z,9.93
2022-11-28T04:56:44.386Z,9.43
2022-11-28T04:59:48.323Z,10.07
2022-11-28T05:02:54.048Z,10.15
2022-11-28T05:05:56.510Z,10.40
2022-11-28T05:08:59.089Z,10.45
2022-11-28T05:12:01.496Z,10.50
2022-11-28T05:15:05.170Z,10.85
2022-11-28T05:18:09.271Z,9.57
2022-11-28T05:21:12.614Z,10.98
2022-11-28T05:24:14.920Z,11.40
2022-11-28T05:27:17.468Z,13.02
2022-11-28T05:30:19.720Z,12.10
2022-11-28T05:33:22.206Z,12.55
2022-11-28T05:36:24.502Z,12.20
2022-11-28T05:39:27.084Z,13.23
2022-11-28T05:42:33.237Z,13.38
2022-11-28T05:45:40.958Z,13.15
2022-11-28T05:48:43.315Z,14.85
2022-11-28T05:51:45.816Z,13.32
2022-11-28T05:54:48.007Z,14.48
2022-11-28T05:57:50.758Z,13.90
2022-11-28T06:00:53.027Z,14.30
2022-11-28T06:04:00.871Z,15.02
2022-11-28T06:07:03.207Z,13.45
2022-11-28T06:10:07.250Z,14.68
2022-11-28T06:13:09.521Z,14.02
2022-11-28T06:16:15.219Z,14.32
2022-11-28T06:19:18.051Z,14.63
2022-11-28T06:22:20.977Z,15.68
2022-11-28T06:25:23.249Z,17.33
2022-11-28T06:28:25.773Z,16.30
2022-11-28T06:31:30.026Z,15.70
2022-11-28T06:34:32.885Z,16.23
2022-11-28T06:37:35.322Z,14.85
2022-11-28T06:40:41.188Z,15.55
2022-11-28T06:43:43.536Z,15.48
2022-11-28T06:46:46.670Z,15.90
2022-11-28T06:49:49.567Z,14.80
2022-11-28T06:52:54.003Z,16.08
2022-11-28T06:55:56.275Z,16.25
2022-11-28T06:58:59.983Z,15.77
2022-11-28T07:02:07.462Z,15.63
2022-11-28T07:05:10.439Z,15.13
2022-11-28T07:08:12.726Z,15.43
2022-11-28T07:11:23.496Z,16.35
2022-11-28T07:14:26.023Z,16.05
2022-11-28T07:17:28.746Z,16.08
2022-11-28T07:20:30.956Z,15.35
2022-11-28T07:23:33.569Z,15.98
2022-11-28T07:26:38.124Z,16.15
2022-11-28T07:29:40.999Z,15.40
2022-11-28T07:32:43.598Z,16.02
2022-11-28T07:35:46.078Z,15.57
2022-11-28T07:38:51.179Z,16.23
2022-11-28T07:41:53.810Z,15.00
2022-11-28T07:44:56.746Z,14.40
2022-11-28T07:47:59.335Z,15.60
2022-11-28T07:51:12.939Z,15.18
2022-11-28T07:54:15.518Z,13.95
2022-11-28T07:57:17.804Z,14.30
2022-11-28T08:00:21.158Z,15.68
2022-11-28T08:03:23.725Z,14.57
2022-11-28T08:06:28.639Z,14.02
2022-11-28T08:09:32.276Z,15.23
2022-11-28T08:12:34.590Z,14.05
2022-11-28T08:15:38.624Z,14.65
2022-11-28T08:18:41.047Z,13.73
2022-11-28T08:21:43.676Z,14.15
2022-11-28T08:24:45.981Z,12.95
2022-11-28T08:27:48.518Z,11.95
2022-11-28T08:30:51.232Z,11.02
2022-11-28T08:33:55.958Z,10.77
2022-11-28T08:36:58.220Z,10.57
2022-11-28T08:40:00.828Z,10.35
2022-11-28T08:43:03.187Z,10.75
2022-11-28T08:46:10.732Z,10.38
2022-11-28T08:49:13.353Z,10.77
2022-11-28T08:52:16.211Z,11.32
2022-11-28T08:55:22.219Z,11.98
2022-11-28T08:58:28.074Z,12.35
2022-11-28T09:01:30.915Z,11.05
2022-11-28T09:04:33.534Z,13.37
2022-11-28T09:07:35.852Z,12.20
2022-11-28T09:10:40.477Z,12.07
2022-11-28T09:13:43.105Z,11.12
2022-11-28T09:16:45.655Z,10.68
2022-11-28T09:19:48.169Z,10.57
2022-11-28T09:22:50.679Z,11.20
2022-11-28T09:25:53.354Z,11.00
2022-11-28T09:28:55.989Z,11.10
2022-11-28T09:31:58.246Z,10.85
2022-11-28T09:35:00.817Z,10.65
2022-11-28T09:38:03.095Z,10.93
2022-11-28T09:41:23.862Z,10.73
2022-11-28T09:44:55.420Z,11.75
2022-11-28T09:48:21.338Z,11.73
2022-11-28T09:51:33.273Z,12.00
2022-11-28T09:54:52.530Z,11.48
2022-11-28T09:57:55.401Z,12.05
2022-11-28T10:01:32.609Z,11.80
2022-11-28T10:04:42.719Z,12.32
2022-11-28T10:07:57.228Z,10.75
2022-11-28T10:11:27.096Z,12.00
2022-11-28T10:14:57.211Z,11.98
2022-11-28T10:18:27.912Z,11.63
2022-11-28T10:21:42.263Z,12.25
2022-11-28T10:24:54.217Z,11.75
2022-11-28T10:27:57.860Z,12.15
2022-11-28T10:31:16.891Z,12.27
2022-11-28T10:34:25.099Z,12.05
2022-11-28T10:37:31.453Z,12.93
2022-11-28T10:40:59.425Z,12.35
2022-11-28T10:44:08.061Z,12.95
2022-11-28T10:47:17.516Z,12.07
2022-11-28T10:50:38.925Z,12.68
2022-11-28T10:53:46.675Z,12.30
2022-11-28T10:57:12.689Z,12.90
2022-11-28T11:00:18.306Z,14.18
2022-11-28T11:03:28.291Z,14.30
2022-11-28T11:06:41.280Z,13.75
2022-11-28T11:09:51.179Z,13.48
2022-11-28T11:12:55.011Z,13.32
2022-11-28T11:16:11.342Z,13.40
2022-11-28T11:19:25.526Z,14.18
2022-11-28T11:22:31.923Z,13.68
2022-11-28T11:25:34.611Z,14.48
2022-11-28T11:28:50.785Z,14.00
2022-11-28T11:31:54.046Z,15.98
2022-11-28T11:34:58.509Z,13.47
2022-11-28T11:38:20.310Z,13.32
2022-11-28T11:41:29.951Z,13.98
2022-11-28T11:44:34.625Z,14.60
2022-11-28T11:47:42.866Z,13.80
2022-11-28T11:50:54.178Z,13.15
2022-11-28T11:54:20.992Z,13.70
2022-11-28T11:57:36.078Z,13.65
2022-11-28T12:00:40.444Z,12.77
2022-11-28T12:03:59.005Z,13.48
2022-11-28T12:07:06.514Z,12.93
2022-11-28T12:10:15.333Z,13.32
2022-11-28T12:13:23.436Z,12.85
2022-11-28T12:16:52.323Z,13.57
2022-11-28T12:20:00.865Z,12.90
2022-11-28T12:23:17.704Z,14.13
2022-11-28T12:26:52.540Z,13.30
2022-11-28T12:30:39.105Z,14.60
2022-11-28T12:34:25.888Z,12.63
2022-11-28T12:38:09.862Z,15.97
2022-11-28T12:41:11.970Z,13.50
2022-11-28T12:44:34.366Z,14.35
2022-11-28T12:48:12.338Z,15.20
2022-11-28T12:51:35.059Z,13.50
2022-11-28T12:55:01.011Z,14.70
2022-11-28T12:58:19.989Z,14.07
2022-11-28T13:01:49.830Z,14.15
2022-11-28T13:05:10.596Z,14.02
2022-11-28T13:08:46.457Z,14.57
2022-11-28T13:12:13.916Z,14.55
2022-11-28T13:15:28.357Z,14.52
2022-11-28T13:18:54.024Z,14.48
2022-11-28T13:22:25.482Z,13.70
2022-11-28T13:25:39.571Z,13.68
2022-11-28T13:29:09.400Z,13.57
2022-11-28T13:32:28.456Z,12.15
2022-11-28T13:35:31.315Z,13.43
2022-11-28T13:39:11.270Z,13.70
2022-11-28T13:42:52.743Z,13.73
2022-11-28T13:45:44.253Z,12.25
2022-11-28T13:52:18.207Z,12.57
2022-11-28T13:55:40.961Z,13.60
2022-11-28T13:58:52.842Z,13.55
2022-11-28T14:02:01.992Z,12.52
2022-11-28T14:05:26.241Z,13.85
2022-11-28T14:08:32.893Z,13.02
2022-11-28T14:12:08.286Z,14.27
2022-11-28T14:15:25.718Z,13.73
2022-11-28T14:19:01.975Z,13.88
2022-11-28T14:22:31.935Z,14.63
2022-11-28T14:25:42.319Z,14.77
2022-11-28T14:28:45.273Z,13.43
2022-11-28T14:32:13.541Z,15.00
2022-11-28T14:35:55.641Z,14.15
2022-11-28T14:39:16.784Z,13.23
2022-11-28T14:42:58.911Z,13.62
2022-11-28T14:45:50.034Z,13.95
2022-11-28T14:48:59.028Z,14.05
2022-11-28T14:52:41.059Z,13.43
2022-11-28T14:55:43.790Z,14.32
2022-11-28T14:58:47.984Z,14.63
2022-11-28T15:02:12.088Z,13.88
2022-11-28T15:05:38.474Z,14.55
2022-11-28T15:09:01.985Z,14.60
2022-11-28T15:12:17.720Z,13.82
2022-11-28T15:15:20.687Z,14.18
2022-11-28T15:18:26.426Z,15.25
2022-11-28T15:21:28.949Z,14.18
2022-11-28T15:24:37.219Z,15.27
2022-11-28T15:27:39.512Z,14.55
2022-11-28T15:30:47.826Z,14.20
2022-11-28T15:33:51.074Z,14.80
2022-11-28T15:36:55.951Z,15.85
2022-11-28T15:39:59.942Z,14.27
2022-11-28T15:43:09.542Z,15.32
2022-11-28T15:46:23.605Z,15.57
2022-11-28T15:49:34.258Z,16.25
2022-11-28T15:52:36.522Z,15.55
2022-11-28T15:55:39.167Z,15.70
2022-11-28T15:58:43.490Z,16.85
2022-11-28T16:01:46.479Z,15.55
2022-11-28T16:05:16.063Z,16.35
2022-11-28T16:08:32.094Z,15.63
2022-11-28T16:11:35.912Z,16.75
2022-11-28T16:14:44.692Z,16.98
2022-11-28T16:17:47.552Z,14.80
2022-11-28T16:20:49.804Z,16.35
2022-11-28T16:23:52.335Z,16.92
2022-11-28T16:27:00.052Z,15.82
2022-11-28T16:30:41.432Z,16.62
2022-11-28T16:33:44.979Z,15.70
2022-11-28T16:36:48.924Z,16.35
2022-11-28T16:40:14.647Z,17.23
2022-11-28T16:43:39.233Z,16.37
2022-11-28T16:46:54.054Z,15.85
2022-11-28T16:50:18.278Z,15.05
2022-11-28T16:53:47.832Z,16.05
2022-11-28T16:56:50.396Z,15.50
2022-11-28T16:59:53.000Z,16.23
2022-11-28T17:02:55.543Z,15.95
2022-11-28T17:05:57.823Z,17.75
2022-11-28T17:09:06.886Z,17.95
2022-11-28T17:12:24.522Z,17.25
2022-11-28T17:15:27.027Z,17.92
2022-11-28T17:18:29.334Z,17.42
2022-11-28T17:21:40.861Z,19.15
2022-11-28T17:24:43.637Z,17.58
2022-11-28T17:27:48.100Z,18.13
2022-11-28T17:30:50.529Z,18.02
2022-11-28T17:33:53.118Z,17.70
2022-11-28T17:36:55.408Z,18.85
2022-11-28T17:40:16.603Z,18.17
2022-11-28T17:43:21.567Z,17.75
2022-11-28T17:46:24.053Z,17.08
2022-11-28T17:49:27.658Z,18.00
2022-11-28T17:52:32.604Z,17.70
2022-11-28T17:55:34.996Z,16.75
2022-11-28T17:58:37.778Z,18.48
2022-11-28T18:01:41.497Z,18.17
2022-11-28T18:04:44.159Z,17.50
2022-11-28T18:07:47.710Z,17.62
2022-11-28T18:10:50.450Z,16.70
2022-11-28T18:13:53.514Z,17.30
2022-11-28T18:16:56.862Z,17.50
2022-11-28T18:19:59.300Z,17.45
2022-11-28T18:23:02.850Z,16.83
2022-11-28T18:26:09.917Z,17.92
2022-11-28T18:29:12.923Z,18.52
2022-11-28T18:32:15.274Z,17.77
2022-11-28T18:35:19.547Z,18.53
2022-11-28T18:38:23.495Z,16.95
2022-11-28T18:41:27.442Z,18.67
2022-11-28T18:44:29.775Z,18.03
2022-11-28T18:47:34.375Z,18.02
2022-11-28T18:50:37.043Z,18.50
2022-11-28T18:53:40.219Z,17.73
2022-11-28T18:56:42.604Z,19.23
2022-11-28T18:59:52.759Z,17.27
2022-11-28T19:02:56.736Z,17.58
2022-11-28T19:05:59.539Z,18.55
2022-11-28T19:09:04.439Z,18.70
2022-11-28T19:12:08.152Z,18.33
2022-11-28T19:15:11.743Z,17.98
2022-11-28T19:18:14.330Z,17.98
2022-11-28T19:21:19.793Z,17.12
2022-11-28T19:24:22.505Z,17.23
2022-11-28T19:27:25.902Z,17.05
2022-11-28T19:30:28.750Z,17.80
2022-11-28T19:33:31.354Z,17.48
2022-11-28T19:36:37.300Z,18.12
2022-11-28T19:39:39.644Z,16.62
2022-11-28T19:42:42.641Z,16.37
2022-11-28T19:45:54.324Z,17.67
2022-11-28T19:48:57.230Z,17.02
2022-11-28T19:51:59.494Z,17.15
2022-11-28T19:55:02.510Z,19.30
2022-11-28T19:58:04.763Z,18.00
2022-11-28T20:01:19.480Z,18.00
2022-11-28T20:04:25.215Z,17.58
2022-11-28T20:07:28.098Z,17.52
2022-11-28T20:10:30.943Z,18.12
2022-11-28T20:13:33.825Z,16.98
2022-11-28T20:16:37.762Z,16.62
2022-11-28T20:19:40.086Z,17.70
2022-11-28T20:22:42.758Z,16.30
2022-11-28T20:25:45.028Z,16.15
2022-11-28T20:28:48.255Z,17.58
2022-11-28T20:31:50.570Z,17.08
2022-11-28T20:34:53.268Z,17.08
2022-11-28T20:37:55.970Z,16.92
2022-11-28T20:41:06.976Z,17.52
2022-11-28T20:44:10.201Z,17.12
2022-11-28T20:47:12.752Z,16.42
2022-11-28T20:50:15.046Z,16.35
2022-11-28T20:53:19.898Z,16.75
2022-11-28T20:56:51.607Z,17.70
2022-11-28T20:59:57.462Z,17.65
2022-11-28T21:02:59.722Z,16.77
2022-11-28T21:06:02.702Z,18.15
2022-11-28T21:09:07.622Z,17.50
2022-11-28T21:12:10.155Z,16.85
2022-11-28T21:15:12.427Z,17.48
2022-11-28T21:18:16.469Z,16.95
2022-11-28T21:21:27.878Z,16.42
2022-11-28T21:24:30.470Z,17.40
2022-11-28T21:27:35.331Z,16.40
2022-11-28T21:30:46.793Z,17.10
2022-11-28T21:33:50.712Z,17.15
2022-11-28T21:36:53.986Z,17.20
2022-11-28T21:39:56.228Z,15.98
2022-11-28T21:42:58.864Z,17.48
2022-11-28T21:46:03.315Z,15.80
2022-11-28T21:49:06.127Z,17.10
2022-11-28T21:52:11.517Z,16.00
2022-11-28T21:55:14.222Z,16.17
2022-11-28T21:58:18.023Z,16.12
2022-11-28T22:01:22.815Z,15.63
2022-11-28T22:04:25.424Z,16.48
2022-11-28T22:07:27.783Z,16.27
2022-11-28T22:10:32.151Z,17.30
2022-11-28T22:13:35.656Z,16.27
2022-11-28T22:16:38.324Z,16.58
2022-11-28T22:19:41.434Z,16.67
2022-11-28T22:22:44.119Z,17.00
2022-11-28T22:25:52.709Z,16.67
2022-11-28T22:28:55.445Z,17.20
2022-11-28T22:31:58.205Z,16.70
2022-11-28T22:35:02.659Z,16.23
2022-11-28T22:38:05.095Z,17.12
2022-11-28T22:41:16.252Z,16.20
2022-11-28T22:44:18.936Z,18.08
2022-11-28T22:47:21.733Z,17.02
2022-11-28T22:50:24.034Z,16.58
2022-11-28T22:53:26.770Z,16.15
2022-11-28T22:56:31.294Z,16.73
2022-11-28T22:59:36.714Z,16.12
2022-11-28T23:02:39.060Z,15.63
2022-11-28T23:05:46.530Z,17.25
2022-11-28T23:08:52.414Z,15.90
2022-11-28T23:11:55.067Z,16.12
2022-11-28T23:14:57.835Z,15.43
2022-11-28T23:18:00.605Z,14.32
2022-11-28T23:21:02.870Z,13.88
2022-11-28T23:24:06.999Z,13.13
2022-11-28T23:27:09.374Z,13.45
2022-11-28T23:30:14.353Z,13.57
2022-11-28T23:33:17.112Z,13.25
2022-11-28T23:36:22.728Z,13.60
2022-11-28T23:39:25.126Z,13.15
2022-11-28T23:42:37.170Z,13.48
2022-11-28T23:45:39.533Z,12.37
2022-11-28T23:48:45.430Z,12.30
2022-11-28T23:51:47.765Z,12.35
2022-11-28T23:54:50.226Z,11.63
2022-11-28T23:57:53.855Z,12.98
